sensor_id;sensor_type;location;lat;lon;timestamp;pressure;altitude;pressure_sealevel;temperature;humidity
78671;BME280;68277;52.724;6.516;2024-03-07T00:02:08;102724.50;;;4.47;100.00
78671;BME280;68277;52.724;6.516;2024-03-07T00:04:33;102705.72;;;4.33;100.00
78671;BME280;68277;52.724;6.516;2024-03-07T00:07:07;102711.91;;;4.37;100.00
78671;BME280;68277;52.724;6.516;2024-03-07T00:09:33;102727.22;;;4.50;100.00
78671;BME280;68277;52.724;6.516;2024-03-07T00:11:59;102740.22;;;4.47;100.00
78671;BME280;68277;52.724;6.516;2024-03-07T00:14:25;102745.34;;;4.44;100.00
78671;BME280;68277;52.724;6.516;2024-03-07T00:16:57;102734.56;;;4.35;100.00
78671;BME280;68277;52.724;6.516;2024-03-07T00:19:23;102741.66;;;4.37;100.00
78671;BME280;68277;52.724;6.516;2024-03-07T00:21:58;102746.00;;;4.37;100.00
78671;BME280;68277;52.724;6.516;2024-03-07T00:24:25;102743.22;;;4.32;100.00
78671;BME280;68277;52.724;6.516;2024-03-07T00:26:52;102738.56;;;4.24;100.00
78671;BME280;68277;52.724;6.516;2024-03-07T00:29:18;102730.19;;;4.08;100.00
78671;BME280;68277;52.724;6.516;2024-03-07T00:31:45;102745.94;;;4.10;100.00
78671;BME280;68277;52.724;6.516;2024-03-07T00:34:13;102719.91;;;3.89;100.00
78671;BME280;68277;52.724;6.516;2024-03-07T00:36:40;102738.78;;;4.04;100.00
78671;BME280;68277;52.724;6.516;2024-03-07T00:39:05;102725.72;;;4.06;100.00
78671;BME280;68277;52.724;6.516;2024-03-07T00:41:49;102746.97;;;4.13;100.00
78671;BME280;68277;52.724;6.516;2024-03-07T00:44:14;102737.91;;;4.04;100.00
78671;BME280;68277;52.724;6.516;2024-03-07T00:46:40;102722.66;;;3.92;100.00
78671;BME280;68277;52.724;6.516;2024-03-07T00:49:05;102753.47;;;3.99;100.00
78671;BME280;68277;52.724;6.516;2024-03-07T00:51:31;102726.72;;;3.84;100.00
78671;BME280;68277;52.724;6.516;2024-03-07T00:53:56;102729.50;;;3.89;100.00
78671;BME280;68277;52.724;6.516;2024-03-07T00:56:23;102757.00;;;4.01;100.00
78671;BME280;68277;52.724;6.516;2024-03-07T00:58:50;102701.72;;;3.69;100.00
78671;BME280;68277;52.724;6.516;2024-03-07T01:01:16;102720.25;;;3.75;100.00
78671;BME280;68277;52.724;6.516;2024-03-07T01:03:43;102719.91;;;3.64;100.00
78671;BME280;68277;52.724;6.516;2024-03-07T01:06:08;102720.69;;;3.62;100.00
78671;BME280;68277;52.724;6.516;2024-03-07T01:08:38;102752.47;;;3.72;100.00
78671;BME280;68277;52.724;6.516;2024-03-07T01:11:05;102729.88;;;3.51;100.00
78671;BME280;68277;52.724;6.516;2024-03-07T01:13:41;102720.69;;;3.38;100.00
78671;BME280;68277;52.724;6.516;2024-03-07T01:16:07;102724.19;;;3.38;100.00
78671;BME280;68277;52.724;6.516;2024-03-07T01:18:40;102757.81;;;3.52;100.00
78671;BME280;68277;52.724;6.516;2024-03-07T01:21:05;102723.94;;;3.32;100.00
78671;BME280;68277;52.724;6.516;2024-03-07T01:23:31;102758.69;;;3.51;100.00
78671;BME280;68277;52.724;6.516;2024-03-07T01:25:58;102690.94;;;3.12;100.00
78671;BME280;68277;52.724;6.516;2024-03-07T01:28:27;102757.53;;;3.44;100.00
78671;BME280;68277;52.724;6.516;2024-03-07T01:30:57;102739.78;;;3.35;100.00
78671;BME280;68277;52.724;6.516;2024-03-07T01:33:23;102712.09;;;3.18;100.00
78671;BME280;68277;52.724;6.516;2024-03-07T01:35:49;102708.34;;;3.12;100.00
78671;BME280;68277;52.724;6.516;2024-03-07T01:38:15;102708.22;;;3.09;100.00
78671;BME280;68277;52.724;6.516;2024-03-07T01:40:44;102749.13;;;3.29;100.00
78671;BME280;68277;52.724;6.516;2024-03-07T01:43:09;102744.63;;;3.25;100.00
78671;BME280;68277;52.724;6.516;2024-03-07T01:45:36;102717.66;;;3.04;100.00
78671;BME280;68277;52.724;6.516;2024-03-07T01:48:03;102750.38;;;3.16;100.00
78671;BME280;68277;52.724;6.516;2024-03-07T01:50:29;102704.94;;;2.91;100.00
78671;BME280;68277;52.724;6.516;2024-03-07T01:52:55;102708.41;;;2.90;100.00
78671;BME280;68277;52.724;6.516;2024-03-07T01:55:24;102713.72;;;2.93;100.00
78671;BME280;68277;52.724;6.516;2024-03-07T01:57:49;102706.56;;;2.87;100.00
78671;BME280;68277;52.724;6.516;2024-03-07T02:00:15;102741.97;;;3.01;100.00
78671;BME280;68277;52.724;6.516;2024-03-07T02:02:45;102718.66;;;2.85;100.00
78671;BME280;68277;52.724;6.516;2024-03-07T02:05:10;102742.66;;;2.97;100.00
78671;BME280;68277;52.724;6.516;2024-03-07T02:07:36;102679.28;;;2.58;100.00
78671;BME280;68277;52.724;6.516;2024-03-07T02:10:06;102670.22;;;2.50;100.00
78671;BME280;68277;52.724;6.516;2024-03-07T02:12:32;102722.94;;;2.83;100.00
78671;BME280;68277;52.724;6.516;2024-03-07T02:14:58;102687.88;;;2.56;100.00
78671;BME280;68277;52.724;6.516;2024-03-07T02:17:24;102686.00;;;2.52;100.00
78671;BME280;68277;52.724;6.516;2024-03-07T02:19:50;102736.50;;;2.73;100.00
78671;BME280;68277;52.724;6.516;2024-03-07T02:22:16;102714.19;;;2.60;100.00
78671;BME280;68277;52.724;6.516;2024-03-07T02:24:42;102716.44;;;2.51;100.00
78671;BME280;68277;52.724;6.516;2024-03-07T02:27:07;102736.00;;;2.61;100.00
78671;BME280;68277;52.724;6.516;2024-03-07T02:29:38;102724.16;;;2.48;100.00
78671;BME280;68277;52.724;6.516;2024-03-07T02:32:04;102696.44;;;2.31;100.00
78671;BME280;68277;52.724;6.516;2024-03-07T02:34:31;102689.00;;;2.20;100.00
78671;BME280;68277;52.724;6.516;2024-03-07T02:36:57;102715.81;;;2.36;100.00
78671;BME280;68277;52.724;6.516;2024-03-07T02:39:23;102715.44;;;2.27;100.00
78671;BME280;68277;52.724;6.516;2024-03-07T02:41:50;102687.09;;;2.16;100.00
78671;BME280;68277;52.724;6.516;2024-03-07T02:44:16;102682.78;;;2.16;100.00
78671;BME280;68277;52.724;6.516;2024-03-07T02:46:42;102722.75;;;2.36;100.00
78671;BME280;68277;52.724;6.516;2024-03-07T02:49:08;102734.44;;;2.44;100.00
78671;BME280;68277;52.724;6.516;2024-03-07T02:51:35;102689.00;;;2.20;100.00
78671;BME280;68277;52.724;6.516;2024-03-07T02:54:01;102719.53;;;2.41;100.00
78671;BME280;68277;52.724;6.516;2024-03-07T02:56:26;102703.53;;;2.34;100.00
78671;BME280;68277;52.724;6.516;2024-03-07T02:58:52;102715.91;;;2.38;100.00
78671;BME280;68277;52.724;6.516;2024-03-07T03:01:17;102677.38;;;2.12;100.00
78671;BME280;68277;52.724;6.516;2024-03-07T03:03:43;102712.22;;;2.33;100.00
78671;BME280;68277;52.724;6.516;2024-03-07T03:06:09;102735.25;;;2.43;100.00
78671;BME280;68277;52.724;6.516;2024-03-07T03:08:35;102714.56;;;2.27;100.00
78671;BME280;68277;52.724;6.516;2024-03-07T03:11:01;102718.13;;;2.29;100.00
78671;BME280;68277;52.724;6.516;2024-03-07T03:13:27;102701.31;;;2.22;100.00
78671;BME280;68277;52.724;6.516;2024-03-07T03:15:55;102659.53;;;2.01;100.00
78671;BME280;68277;52.724;6.516;2024-03-07T03:18:22;102691.56;;;2.18;100.00
78671;BME280;68277;52.724;6.516;2024-03-07T03:20:49;102694.38;;;2.23;100.00
78671;BME280;68277;52.724;6.516;2024-03-07T03:23:15;102711.25;;;2.31;100.00
78671;BME280;68277;52.724;6.516;2024-03-07T03:25:41;102658.78;;;2.04;100.00
78671;BME280;68277;52.724;6.516;2024-03-07T03:28:08;102674.44;;;2.04;100.00
78671;BME280;68277;52.724;6.516;2024-03-07T03:30:37;102686.78;;;2.08;100.00
78671;BME280;68277;52.724;6.516;2024-03-07T03:33:04;102710.84;;;2.22;100.00
78671;BME280;68277;52.724;6.516;2024-03-07T03:35:31;102642.84;;;1.77;100.00
78671;BME280;68277;52.724;6.516;2024-03-07T03:37:57;102716.66;;;2.15;100.00
78671;BME280;68277;52.724;6.516;2024-03-07T03:40:22;102675.44;;;1.87;100.00
78671;BME280;68277;52.724;6.516;2024-03-07T03:42:49;102708.53;;;2.07;100.00
78671;BME280;68277;52.724;6.516;2024-03-07T03:45:15;102678.78;;;1.83;100.00
78671;BME280;68277;52.724;6.516;2024-03-07T03:47:42;102698.53;;;1.97;100.00
78671;BME280;68277;52.724;6.516;2024-03-07T03:50:09;102685.09;;;1.88;100.00
78671;BME280;68277;52.724;6.516;2024-03-07T03:52:36;102681.75;;;1.92;100.00
78671;BME280;68277;52.724;6.516;2024-03-07T03:55:03;102716.41;;;2.08;100.00
78671;BME280;68277;52.724;6.516;2024-03-07T03:57:33;102715.50;;;2.08;100.00
78671;BME280;68277;52.724;6.516;2024-03-07T04:00:09;102714.56;;;2.06;100.00
78671;BME280;68277;52.724;6.516;2024-03-07T04:02:41;102712.84;;;2.06;100.00
78671;BME280;68277;52.724;6.516;2024-03-07T04:05:07;102648.59;;;1.69;100.00
78671;BME280;68277;52.724;6.516;2024-03-07T04:07:35;102683.28;;;1.87;100.00
78671;BME280;68277;52.724;6.516;2024-03-07T04:10:01;102688.38;;;1.84;100.00
78671;BME280;68277;52.724;6.516;2024-03-07T04:12:28;102678.50;;;1.77;100.00
78671;BME280;68277;52.724;6.516;2024-03-07T04:14:54;102695.53;;;1.88;100.00
78671;BME280;68277;52.724;6.516;2024-03-07T04:17:22;102705.22;;;1.90;100.00
78671;BME280;68277;52.724;6.516;2024-03-07T04:19:48;102673.72;;;1.67;100.00
78671;BME280;68277;52.724;6.516;2024-03-07T04:22:13;102677.22;;;1.67;100.00
78671;BME280;68277;52.724;6.516;2024-03-07T04:24:39;102666.28;;;1.55;100.00
78671;BME280;68277;52.724;6.516;2024-03-07T04:27:06;102684.16;;;1.67;100.00
78671;BME280;68277;52.724;6.516;2024-03-07T04:29:35;102647.47;;;1.43;100.00
78671;BME280;68277;52.724;6.516;2024-03-07T04:32:02;102707.91;;;1.73;100.00
78671;BME280;68277;52.724;6.516;2024-03-07T04:34:29;102663.13;;;1.43;100.00
78671;BME280;68277;52.724;6.516;2024-03-07T04:36:57;102653.44;;;1.41;100.00
78671;BME280;68277;52.724;6.516;2024-03-07T04:39:24;102676.44;;;1.49;100.00
78671;BME280;68277;52.724;6.516;2024-03-07T04:41:53;102660.53;;;1.43;100.00
78671;BME280;68277;52.724;6.516;2024-03-07T04:44:20;102711.84;;;1.63;100.00
78671;BME280;68277;52.724;6.516;2024-03-07T04:46:49;102670.75;;;1.38;100.00
78671;BME280;68277;52.724;6.516;2024-03-07T04:54:58;102647.34;;;1.21;100.00
78671;BME280;68277;52.724;6.516;2024-03-07T04:57:24;102664.09;;;1.26;100.00
78671;BME280;68277;52.724;6.516;2024-03-07T04:59:50;102703.22;;;1.45;100.00
78671;BME280;68277;52.724;6.516;2024-03-07T05:02:16;102662.19;;;1.22;100.00
78671;BME280;68277;52.724;6.516;2024-03-07T05:04:41;102686.22;;;1.34;100.00
78671;BME280;68277;52.724;6.516;2024-03-07T05:07:07;102654.91;;;1.15;100.00
78671;BME280;68277;52.724;6.516;2024-03-07T05:09:32;102684.25;;;1.30;100.00
78671;BME280;68277;52.724;6.516;2024-03-07T05:11:59;102680.34;;;1.20;100.00
78671;BME280;68277;52.724;6.516;2024-03-07T05:14:24;102704.66;;;1.38;100.00
78671;BME280;68277;52.724;6.516;2024-03-07T05:16:53;102693.75;;;1.28;100.00
78671;BME280;68277;52.724;6.516;2024-03-07T05:19:31;102710.56;;;1.34;100.00
78671;BME280;68277;52.724;6.516;2024-03-07T05:21:57;102675.97;;;1.19;100.00
78671;BME280;68277;52.724;6.516;2024-03-07T05:24:23;102688.19;;;1.20;100.00
78671;BME280;68277;52.724;6.516;2024-03-07T05:26:48;102682.56;;;1.11;100.00
78671;BME280;68277;52.724;6.516;2024-03-07T05:29:14;102703.06;;;1.23;100.00
78671;BME280;68277;52.724;6.516;2024-03-07T05:31:40;102709.38;;;1.28;100.00
78671;BME280;68277;52.724;6.516;2024-03-07T05:34:13;102694.84;;;1.14;100.00
78671;BME280;68277;52.724;6.516;2024-03-07T05:36:41;102661.78;;;0.94;100.00
78671;BME280;68277;52.724;6.516;2024-03-07T05:39:15;102709.59;;;1.13;100.00
78671;BME280;68277;52.724;6.516;2024-03-07T05:41:42;102720.09;;;1.15;100.00
78671;BME280;68277;52.724;6.516;2024-03-07T05:44:18;102636.94;;;0.63;100.00
78671;BME280;68277;52.724;6.516;2024-03-07T05:46:44;102667.88;;;0.75;100.00
78671;BME280;68277;52.724;6.516;2024-03-07T05:51:54;102709.06;;;1.01;100.00
78671;BME280;68277;52.724;6.516;2024-03-07T05:54:19;102665.31;;;0.77;100.00
78671;BME280;68277;52.724;6.516;2024-03-07T05:56:45;102690.28;;;0.91;100.00
78671;BME280;68277;52.724;6.516;2024-03-07T05:59:10;102718.69;;;1.04;100.00
78671;BME280;68277;52.724;6.516;2024-03-07T06:01:36;102698.81;;;0.87;100.00
78671;BME280;68277;52.724;6.516;2024-03-07T06:06:47;102697.16;;;0.89;100.00
78671;BME280;68277;52.724;6.516;2024-03-07T06:09:14;102678.50;;;0.80;100.00
78671;BME280;68277;52.724;6.516;2024-03-07T06:11:40;102706.22;;;0.97;100.00
78671;BME280;68277;52.724;6.516;2024-03-07T06:14:09;102705.19;;;0.93;100.00
78671;BME280;68277;52.724;6.516;2024-03-07T06:16:38;102649.09;;;0.64;100.00
78671;BME280;68277;52.724;6.516;2024-03-07T06:19:04;102674.03;;;0.77;100.00
78671;BME280;68277;52.724;6.516;2024-03-07T06:21:35;102717.75;;;1.02;100.00
78671;BME280;68277;52.724;6.516;2024-03-07T06:24:02;102712.31;;;0.97;100.00
78671;BME280;68277;52.724;6.516;2024-03-07T06:26:29;102726.88;;;1.11;100.00
78671;BME280;68277;52.724;6.516;2024-03-07T06:29:24;102668.06;;;0.80;100.00
78671;BME280;68277;52.724;6.516;2024-03-07T06:31:50;102725.16;;;1.12;100.00
78671;BME280;68277;52.724;6.516;2024-03-07T06:34:16;102717.50;;;1.15;100.00
78671;BME280;68277;52.724;6.516;2024-03-07T06:36:45;102676.13;;;1.03;100.00
78671;BME280;68277;52.724;6.516;2024-03-07T06:39:11;102704.78;;;1.42;100.00
78671;BME280;68277;52.724;6.516;2024-03-07T06:41:37;102735.72;;;1.72;100.00
78671;BME280;68277;52.724;6.516;2024-03-07T06:44:03;102685.59;;;1.60;100.00
78671;BME280;68277;52.724;6.516;2024-03-07T06:46:29;102727.94;;;1.93;100.00
78671;BME280;68277;52.724;6.516;2024-03-07T06:48:56;102724.56;;;1.95;100.00
78671;BME280;68277;52.724;6.516;2024-03-07T06:51:22;102746.28;;;2.15;100.00
78671;BME280;68277;52.724;6.516;2024-03-07T06:53:48;102697.09;;;2.05;100.00
78671;BME280;68277;52.724;6.516;2024-03-07T06:56:14;102724.88;;;2.44;100.00
78671;BME280;68277;52.724;6.516;2024-03-07T06:58:40;102730.19;;;2.90;100.00
78671;BME280;68277;52.724;6.516;2024-03-07T07:01:06;102678.81;;;2.92;100.00
78671;BME280;68277;52.724;6.516;2024-03-07T07:03:35;102706.03;;;3.43;100.00
78671;BME280;68277;52.724;6.516;2024-03-07T07:06:01;102714.13;;;3.98;100.00
78671;BME280;68277;52.724;6.516;2024-03-07T07:08:27;102678.59;;;4.33;100.00
78671;BME280;68277;52.724;6.516;2024-03-07T07:10:55;102668.59;;;4.48;100.00
78671;BME280;68277;52.724;6.516;2024-03-07T07:13:21;102705.66;;;4.87;100.00
78671;BME280;68277;52.724;6.516;2024-03-07T07:15:48;102691.81;;;5.20;100.00
78671;BME280;68277;52.724;6.516;2024-03-07T07:18:15;102692.78;;;5.24;100.00
78671;BME280;68277;52.724;6.516;2024-03-07T07:20:40;102731.78;;;5.73;100.00
78671;BME280;68277;52.724;6.516;2024-03-07T07:23:06;102693.56;;;5.51;100.00
78671;BME280;68277;52.724;6.516;2024-03-07T07:25:31;102730.47;;;5.56;100.00
78671;BME280;68277;52.724;6.516;2024-03-07T07:27:57;102678.34;;;5.10;100.00
78671;BME280;68277;52.724;6.516;2024-03-07T07:30:24;102740.25;;;5.31;100.00
78671;BME280;68277;52.724;6.516;2024-03-07T07:32:51;102743.94;;;5.38;100.00
78671;BME280;68277;52.724;6.516;2024-03-07T07:35:17;102729.31;;;5.46;100.00
78671;BME280;68277;52.724;6.516;2024-03-07T07:37:44;102742.28;;;5.73;100.00
78671;BME280;68277;52.724;6.516;2024-03-07T07:40:13;102689.44;;;6.26;100.00
78671;BME280;68277;52.724;6.516;2024-03-07T07:42:40;102733.38;;;7.88;100.00
78671;BME280;68277;52.724;6.516;2024-03-07T07:45:10;102720.88;;;9.44;98.53
78671;BME280;68277;52.724;6.516;2024-03-07T07:47:41;102710.44;;;10.41;97.28
78671;BME280;68277;52.724;6.516;2024-03-07T07:50:08;102663.75;;;10.52;98.84
78671;BME280;68277;52.724;6.516;2024-03-07T07:52:42;102681.47;;;10.57;99.09
78671;BME280;68277;52.724;6.516;2024-03-07T07:55:08;102696.59;;;10.79;94.66
78671;BME280;68277;52.724;6.516;2024-03-07T07:57:44;102693.47;;;10.14;100.00
78671;BME280;68277;52.724;6.516;2024-03-07T08:00:12;102714.94;;;8.94;100.00
78671;BME280;68277;52.724;6.516;2024-03-07T08:02:38;102697.88;;;7.71;100.00
78671;BME280;68277;52.724;6.516;2024-03-07T08:05:03;102693.31;;;6.77;100.00
78671;BME280;68277;52.724;6.516;2024-03-07T08:07:31;102684.03;;;6.20;100.00
78671;BME280;68277;52.724;6.516;2024-03-07T08:09:56;102701.97;;;7.12;100.00
78671;BME280;68277;52.724;6.516;2024-03-07T08:12:22;102666.69;;;9.08;100.00
78671;BME280;68277;52.724;6.516;2024-03-07T08:14:48;102691.09;;;10.48;100.00
78671;BME280;68277;52.724;6.516;2024-03-07T08:17:13;102673.88;;;11.28;87.92
78671;BME280;68277;52.724;6.516;2024-03-07T08:19:39;102659.91;;;11.78;87.76
78671;BME280;68277;52.724;6.516;2024-03-07T08:22:05;102651.88;;;12.86;76.70
78671;BME280;68277;52.724;6.516;2024-03-07T08:24:30;102668.56;;;13.32;82.34
78671;BME280;68277;52.724;6.516;2024-03-07T08:26:57;102690.69;;;13.42;88.77
78671;BME280;68277;52.724;6.516;2024-03-07T08:29:22;102689.97;;;12.81;93.21
78671;BME280;68277;52.724;6.516;2024-03-07T08:31:49;102691.78;;;12.44;88.72
78671;BME280;68277;52.724;6.516;2024-03-07T08:34:15;102697.09;;;12.56;94.17
78671;BME280;68277;52.724;6.516;2024-03-07T08:36:40;102655.50;;;12.37;85.69
78671;BME280;68277;52.724;6.516;2024-03-07T08:39:06;102668.31;;;10.77;84.21
78671;BME280;68277;52.724;6.516;2024-03-07T08:41:36;102716.88;;;9.08;91.42
78671;BME280;68277;52.724;6.516;2024-03-07T08:44:06;102682.81;;;7.63;100.00
78671;BME280;68277;52.724;6.516;2024-03-07T08:46:32;102690.06;;;6.89;100.00
78671;BME280;68277;52.724;6.516;2024-03-07T08:49:04;102718.50;;;6.32;100.00
78671;BME280;68277;52.724;6.516;2024-03-07T08:51:30;102721.28;;;5.73;100.00
78671;BME280;68277;52.724;6.516;2024-03-07T08:53:56;102723.78;;;5.37;100.00
78671;BME280;68277;52.724;6.516;2024-03-07T08:56:21;102706.03;;;4.99;100.00
78671;BME280;68277;52.724;6.516;2024-03-07T08:58:48;102702.50;;;4.70;100.00
78671;BME280;68277;52.724;6.516;2024-03-07T09:01:13;102706.28;;;4.51;100.00
78671;BME280;68277;52.724;6.516;2024-03-07T09:03:39;102712.81;;;4.37;100.00
78671;BME280;68277;52.724;6.516;2024-03-07T09:06:04;102664.25;;;3.95;100.00
78671;BME280;68277;52.724;6.516;2024-03-07T09:08:30;102653.09;;;3.75;100.00
78671;BME280;68277;52.724;6.516;2024-03-07T09:10:56;102702.47;;;3.90;100.00
78671;BME280;68277;52.724;6.516;2024-03-07T09:13:23;102726.22;;;3.94;100.00
78671;BME280;68277;52.724;6.516;2024-03-07T09:15:49;102724.00;;;3.81;100.00
78671;BME280;68277;52.724;6.516;2024-03-07T09:18:14;102703.34;;;3.65;100.00
78671;BME280;68277;52.724;6.516;2024-03-07T09:20:41;102673.63;;;3.39;100.00
78671;BME280;68277;52.724;6.516;2024-03-07T09:23:07;102749.94;;;3.74;100.00
78671;BME280;68277;52.724;6.516;2024-03-07T09:25:33;102742.41;;;3.59;100.00
78671;BME280;68277;52.724;6.516;2024-03-07T09:27:59;102743.84;;;3.51;100.00
78671;BME280;68277;52.724;6.516;2024-03-07T09:30:28;102732.06;;;3.62;100.00
78671;BME280;68277;52.724;6.516;2024-03-07T09:32:54;102713.66;;;3.61;100.00
78671;BME280;68277;52.724;6.516;2024-03-07T09:35:20;102709.75;;;3.50;100.00
78671;BME280;68277;52.724;6.516;2024-03-07T09:37:46;102725.31;;;3.45;100.00
78671;BME280;68277;52.724;6.516;2024-03-07T09:40:13;102713.31;;;3.52;100.00
78671;BME280;68277;52.724;6.516;2024-03-07T09:42:47;102691.44;;;3.50;100.00
78671;BME280;68277;52.724;6.516;2024-03-07T09:45:20;102670.31;;;3.43;100.00
78671;BME280;68277;52.724;6.516;2024-03-07T09:47:49;102638.13;;;3.22;100.00
78671;BME280;68277;52.724;6.516;2024-03-07T09:50:18;102645.00;;;3.20;100.00
78671;BME280;68277;52.724;6.516;2024-03-07T09:52:53;102710.06;;;3.33;100.00
78671;BME280;68277;52.724;6.516;2024-03-07T09:55:19;102685.75;;;3.14;100.00
78671;BME280;68277;52.724;6.516;2024-03-07T09:57:49;102720.03;;;3.43;100.00
78671;BME280;68277;52.724;6.516;2024-03-07T10:00:20;102704.03;;;3.60;100.00
78671;BME280;68277;52.724;6.516;2024-03-07T10:03:02;102717.09;;;3.83;100.00
78671;BME280;68277;52.724;6.516;2024-03-07T10:05:32;102694.34;;;3.82;100.00
78671;BME280;68277;52.724;6.516;2024-03-07T10:07:59;102721.88;;;3.95;100.00
78671;BME280;68277;52.724;6.516;2024-03-07T10:10:25;102712.78;;;3.85;100.00
78671;BME280;68277;52.724;6.516;2024-03-07T10:12:52;102712.28;;;3.95;100.00
78671;BME280;68277;52.724;6.516;2024-03-07T10:15:19;102675.28;;;3.86;100.00
78671;BME280;68277;52.724;6.516;2024-03-07T10:17:45;102701.41;;;4.10;100.00
78671;BME280;68277;52.724;6.516;2024-03-07T10:20:12;102699.78;;;4.13;100.00
78671;BME280;68277;52.724;6.516;2024-03-07T10:22:42;102678.44;;;4.28;100.00
78671;BME280;68277;52.724;6.516;2024-03-07T10:25:08;102660.94;;;4.27;100.00
78671;BME280;68277;52.724;6.516;2024-03-07T10:27:36;102637.25;;;4.24;100.00
78671;BME280;68277;52.724;6.516;2024-03-07T10:30:02;102637.44;;;4.30;100.00
78671;BME280;68277;52.724;6.516;2024-03-07T10:32:27;102629.72;;;4.35;100.00
78671;BME280;68277;52.724;6.516;2024-03-07T10:34:55;102663.53;;;4.82;100.00
78671;BME280;68277;52.724;6.516;2024-03-07T10:37:20;102679.81;;;5.00;100.00
78671;BME280;68277;52.724;6.516;2024-03-07T10:39:49;102612.84;;;4.83;100.00
78671;BME280;68277;52.724;6.516;2024-03-07T10:42:16;102680.03;;;5.37;100.00
78671;BME280;68277;52.724;6.516;2024-03-07T10:44:46;102670.66;;;5.47;100.00
78671;BME280;68277;52.724;6.516;2024-03-07T10:47:17;102651.69;;;5.57;100.00
78671;BME280;68277;52.724;6.516;2024-03-07T10:52:55;102672.88;;;5.96;100.00
78671;BME280;68277;52.724;6.516;2024-03-07T10:58:02;102615.75;;;5.54;100.00
78671;BME280;68277;52.724;6.516;2024-03-07T11:00:29;102631.50;;;5.54;100.00
78671;BME280;68277;52.724;6.516;2024-03-07T11:03:01;102685.50;;;5.76;100.00
78671;BME280;68277;52.724;6.516;2024-03-07T11:05:29;102679.34;;;5.76;100.00
78671;BME280;68277;52.724;6.516;2024-03-07T11:07:59;102676.47;;;5.67;100.00
78671;BME280;68277;52.724;6.516;2024-03-07T11:10:28;102614.47;;;5.40;100.00
78671;BME280;68277;52.724;6.516;2024-03-07T11:12:57;102601.13;;;5.31;100.00
78671;BME280;68277;52.724;6.516;2024-03-07T11:15:24;102644.38;;;5.45;100.00
78671;BME280;68277;52.724;6.516;2024-03-07T11:17:53;102665.66;;;5.56;100.00
78671;BME280;68277;52.724;6.516;2024-03-07T11:20:24;102650.00;;;5.59;100.00
78671;BME280;68277;52.724;6.516;2024-03-07T11:22:50;102643.56;;;5.81;100.00
78671;BME280;68277;52.724;6.516;2024-03-07T11:25:20;102625.94;;;6.09;100.00
78671;BME280;68277;52.724;6.516;2024-03-07T11:27:59;102645.75;;;6.68;100.00
78671;BME280;68277;52.724;6.516;2024-03-07T11:30:25;102581.63;;;6.65;100.00
78671;BME280;68277;52.724;6.516;2024-03-07T11:32:52;102617.50;;;7.02;100.00
78671;BME280;68277;52.724;6.516;2024-03-07T11:35:31;102628.34;;;7.17;100.00
78671;BME280;68277;52.724;6.516;2024-03-07T11:37:58;102636.78;;;7.01;100.00
78671;BME280;68277;52.724;6.516;2024-03-07T11:42:51;102631.97;;;6.80;100.00
78671;BME280;68277;52.724;6.516;2024-03-07T11:45:18;102627.47;;;6.76;100.00
78671;BME280;68277;52.724;6.516;2024-03-07T11:47:54;102613.91;;;6.56;100.00
78671;BME280;68277;52.724;6.516;2024-03-07T11:50:26;102622.19;;;6.76;100.00
78671;BME280;68277;52.724;6.516;2024-03-07T11:52:55;102575.97;;;6.47;100.00
78671;BME280;68277;52.724;6.516;2024-03-07T11:55:24;102597.09;;;6.50;100.00
78671;BME280;68277;52.724;6.516;2024-03-07T11:57:50;102606.09;;;6.61;100.00
78671;BME280;68277;52.724;6.516;2024-03-07T12:00:18;102581.25;;;6.48;100.00
78671;BME280;68277;52.724;6.516;2024-03-07T12:02:44;102604.22;;;6.55;100.00
78671;BME280;68277;52.724;6.516;2024-03-07T12:05:10;102609.53;;;6.57;100.00
78671;BME280;68277;52.724;6.516;2024-03-07T12:07:36;102597.72;;;6.38;100.00
78671;BME280;68277;52.724;6.516;2024-03-07T12:10:02;102604.88;;;6.45;100.00
78671;BME280;68277;52.724;6.516;2024-03-07T12:12:32;102576.34;;;6.25;100.00
78671;BME280;68277;52.724;6.516;2024-03-07T12:14:58;102596.44;;;6.22;100.00
78671;BME280;68277;52.724;6.516;2024-03-07T12:17:25;102567.00;;;6.00;100.00
78671;BME280;68277;52.724;6.516;2024-03-07T12:19:51;102573.41;;;6.11;100.00
78671;BME280;68277;52.724;6.516;2024-03-07T12:22:19;102591.25;;;6.24;100.00
78671;BME280;68277;52.724;6.516;2024-03-07T12:24:59;102573.41;;;6.12;100.00
78671;BME280;68277;52.724;6.516;2024-03-07T12:27:27;102536.31;;;5.99;100.00
78671;BME280;68277;52.724;6.516;2024-03-07T12:29:54;102512.28;;;5.84;100.00
78671;BME280;68277;52.724;6.516;2024-03-07T12:32:19;102552.97;;;5.99;100.00
78671;BME280;68277;52.724;6.516;2024-03-07T12:34:46;102565.50;;;6.11;100.00
78671;BME280;68277;52.724;6.516;2024-03-07T12:37:13;102558.38;;;6.05;100.00
78671;BME280;68277;52.724;6.516;2024-03-07T12:39:42;102548.69;;;6.03;100.00
78671;BME280;68277;52.724;6.516;2024-03-07T12:42:13;102509.13;;;5.97;100.00
78671;BME280;68277;52.724;6.516;2024-03-07T12:44:41;102499.97;;;6.17;100.00
78671;BME280;68277;52.724;6.516;2024-03-07T12:47:16;102550.19;;;6.71;100.00
78671;BME280;68277;52.724;6.516;2024-03-07T12:49:53;102490.84;;;6.86;100.00
78671;BME280;68277;52.724;6.516;2024-03-07T12:52:18;102508.19;;;7.23;100.00
78671;BME280;68277;52.724;6.516;2024-03-07T12:54:48;102491.88;;;7.42;100.00
78671;BME280;68277;52.724;6.516;2024-03-07T12:57:15;102477.03;;;7.47;100.00
78671;BME280;68277;52.724;6.516;2024-03-07T12:59:41;102510.03;;;7.80;100.00
78671;BME280;68277;52.724;6.516;2024-03-07T13:02:07;102496.75;;;7.72;100.00
78671;BME280;68277;52.724;6.516;2024-03-07T13:04:34;102491.06;;;7.46;100.00
78671;BME280;68277;52.724;6.516;2024-03-07T13:07:00;102513.75;;;7.37;100.00
78671;BME280;68277;52.724;6.516;2024-03-07T13:09:30;102485.06;;;7.04;100.00
78671;BME280;68277;52.724;6.516;2024-03-07T13:11:58;102499.06;;;7.02;100.00